Celebrity Reflection — 9HA3047 — position and weather

sailwx.info

Track history (hours):
 
Tides and Currents Weather Stations Pressure Air Temp Water Temp Dewpoint Dewpoint Depression Visibility Wind Speed Wind Dir Waves Ship Positions

Celebrity Reflection

Last reported at 2018-Jul-21 22:00 UTC. Time now 2018-Jul-22 03:21 UTC.
Position N 36°48' E 015°18'.

Length 319 m; draft 8.6 m.

Type: Passenger vessel. MMSI: 229074000.

Wind from 220 at 8 knots

Barometer 1014.0 mb
Air temperature 26.3 ° C
Visibility: greater than 0.3 NM
Dewpoint 22.7 ° C
Water temperature 27.0 ° C

Date/timePositionNaut miles runAvg speedWind from/ knotsBaromVisibWave heightAir tempDewpointWater temp
2018-Jul-21 22:00N 36°48' E 015°18'5518.3 220 / 81014.0 0.3 26.322.727.0
2018-Jul-21 19:00N 37°42' E 015°30'30 3.8 090 / 81013.0 27.027.026.0
2018-Jul-21 11:00N 38°12' E 015°30'6 3.0 040 / 51014.0 0.5 25.320.525.9
2018-Jul-21 09:00N 38°06' E 015°30'5711.5 030 / 91014.0 26.0
2018-Jul-21 04:02N 38°60' E 015°07'119.4
2018-Jul-21 03:59N 39°01' E 015°06'1019.3
2018-Jul-21 03:29N 39°08' E 014°57'919.2
2018-Jul-21 03:00N 39°14' E 014°49'1817.5
2018-Jul-21 02:00N 39°24' E 014°30'1722.9 190 / 6 25.6 27.5
2018-Jul-21 01:15N 39°39' E 014°19'919.1
2018-Jul-21 00:46N 39°45' E 014°11'519.2
2018-Jul-21 00:30N 39°49' E 014°06'1019.4
2018-Jul-21 00:00N 39°56' E 013°57'1019.4
2018-Jul-20 23:30N 40°03' E 013°49'1019.3
2018-Jul-20 23:00N 40°10' E 013°40'5336.5
2018-Jul-20 23:00N 40°06' E 013°36'1223.9 300 / 31014.0 0.1 25.122.127.5
2018-Jul-20 22:30N 40°17' E 013°31'1019.2
2018-Jul-20 22:00N 40°24' E 013°22'1019.3
2018-Jul-20 21:30N 40°31' E 013°14'1019.2
2018-Jul-20 21:00N 40°38' E 013°05'1019.2
2018-Jul-20 20:30N 40°45' E 012°56'1019.3
2018-Jul-20 20:00N 40°52' E 012°47'919.3
2018-Jul-20 19:30N 40°60' E 012°40'1019.3
2018-Jul-20 19:00N 41°07' E 012°32'7454.2
2018-Jul-20 19:00N 41°06' E 012°24'1019.0 260 / 81013.0 26.026.025.0
2018-Jul-20 18:29N 41°16' E 012°25'919.3
2018-Jul-20 18:00N 41°23' E 012°17'1019.2
2018-Jul-20 17:28N 41°32' E 012°10'919.3
2018-Jul-20 17:00N 41°39' E 012°03'4227.7
2018-Jul-20 17:00N 41°36' E 012°00'1123.4 230 / 12 27.9 27.3
2018-Jul-20 16:30N 41°47' E 011°55'22 3.3
2018-Jul-20 10:00N 42°06' E 011°42'0 0.0 270 / 31014.0 0.3 28.222.622.3
2018-Jul-20 03:00N 42°06' E 011°42'1 1.2 020 / 4 22.2 22.3
2018-Jul-20 02:07N 42°05' E 011°43'212.8
2018-Jul-20 01:57N 42°04' E 011°41'613.3
2018-Jul-20 01:30N 42°01' E 011°33'713.5
2018-Jul-20 00:59N 41°59' E 011°24'613.5
2018-Jul-20 00:30N 41°57' E 011°16'713.4
2018-Jul-20 00:00N 41°54' E 011°08'713.5
2018-Jul-19 23:30N 41°51' E 010°60'713.8
2018-Jul-19 23:00N 41°49' E 010°51'713.9
2018-Jul-19 22:30N 41°46' E 010°43'713.7
2018-Jul-19 22:00N 41°43' E 010°34'2120.7
2018-Jul-19 22:00N 41°42' E 010°36'815.9 350 / 71014.0 0.5 24.222.726.3
2018-Jul-19 21:30N 41°41' E 010°26'713.7
2018-Jul-19 21:00N 41°38' E 010°17'713.7
2018-Jul-19 20:31N 41°35' E 010°09'713.6
2018-Jul-19 20:00N 41°32' E 010°01'713.7
2018-Jul-19 19:30N 41°29' E 009°53'1834.9
2018-Jul-19 19:00N 41°24' E 009°30'837.3 270 / 111014.0 26.026.026.0
2018-Jul-19 18:47N 41°26' E 009°40'413.8
2018-Jul-19 18:30N 41°26' E 009°35'813.8
2018-Jul-19 17:57N 41°23' E 009°26'3015.6
2018-Jul-19 16:00N 41°12' E 008°48'3912.3 290 / 12 26.5 26.1
2018-Jul-19 12:51N 41°02' E 007°58'513.8
2018-Jul-19 12:30N 41°00' E 007°53'713.7
2018-Jul-19 11:59N 40°57' E 007°45'814.0
2018-Jul-19 11:23N 40°53' E 007°35'514.0
2018-Jul-19 11:00N 40°50' E 007°28'8532.6
2018-Jul-19 11:00N 40°48' E 007°18'2 2.8 320 / 191015.0 0.3 24.122.125.5
2018-Jul-19 10:22N 40°46' E 007°18'513.9
2018-Jul-19 09:58N 40°44' E 007°11'714.0
2018-Jul-19 09:30N 40°41' E 007°04'714.0
2018-Jul-19 09:00N 40°38' E 006°56'4225.1
2018-Jul-19 09:00N 40°36' E 007°00'6214.7 320 / 161015.0 26.026.025.0
2018-Jul-19 04:47N 40°10' E 005°46'414.0
2018-Jul-19 04:30N 40°09' E 005°42'713.6
2018-Jul-19 04:00N 40°05' E 005°34'3115.5
2018-Jul-19 02:00N 39°48' E 005°00'3213.0 030 / 8 25.0 26.6
2018-Jul-18 23:32N 39°37' E 004°21'214.0
2018-Jul-18 23:25N 39°36' E 004°19'614.0
2018-Jul-18 23:00N 39°33' E 004°13'713.9
2018-Jul-18 22:30N 39°30' E 004°05'714.0
2018-Jul-18 22:00N 39°27' E 003°56'4426.7
2018-Jul-18 22:00N 39°30' E 004°00'1122.2 020 / 51015.0 0.3 24.721.427.0
2018-Jul-18 21:30N 39°24' E 003°48'714.0
2018-Jul-18 21:01N 39°21' E 003°40'714.0
2018-Jul-18 20:30N 39°17' E 003°32'714.1
2018-Jul-18 20:00N 39°14' E 003°24'714.1
2018-Jul-18 19:30N 39°11' E 003°16'714.0
2018-Jul-18 19:00N 39°08' E 003°08'10717.6
2018-Jul-18 19:00N 39°00' E 003°00'5 9.4 090 / 111013.0 27.027.027.0
2018-Jul-18 18:30N 39°05' E 002°60'712.1
2018-Jul-18 17:55N 39°08' E 002°52'614.3
2018-Jul-18 17:30N 39°13' E 002°49'714.2
2018-Jul-18 17:00N 39°20' E 002°45'714.2
2018-Jul-18 16:30N 39°26' E 002°41'5 9.5
2018-Jul-18 16:00N 39°24' E 002°36'94130.8 160 / 16 28.9 27.9
2018-Jul-18 15:59N 39°33' E 002°39'1 1.6
2018-Jul-18 15:29N 39°33' E 002°38'0 0.0
2018-Jul-18 14:56N 39°33' E 002°38'0 0.0
2018-Jul-18 14:29N 39°33' E 002°38'0 0.0
2018-Jul-18 13:29N 39°33' E 002°38'0 0.0
2018-Jul-18 12:59N 39°33' E 002°38'0 0.0
2018-Jul-18 12:29N 39°33' E 002°38'3 6.6
2018-Jul-18 12:00N 39°30' E 002°36'313.1 200 / 121015.0 0.3 27.921.727.0
2018-Jul-18 11:44N 39°33' E 002°38'0 0.0
2018-Jul-18 11:29N 39°33' E 002°38'0 0.0
2018-Jul-18 10:26N 39°33' E 002°38'0 0.0
2018-Jul-18 09:56N 39°33' E 002°38'0 0.0
2018-Jul-18 09:29N 39°33' E 002°38'3 6.6
2018-Jul-18 09:00N 39°30' E 002°36'31979.5 070 / 111015.0 28.0 21.0
2018-Jul-18 08:59N 39°33' E 002°38'0 0.0
2018-Jul-18 08:29N 39°33' E 002°38'0 0.0
2018-Jul-18 07:56N 39°33' E 002°38'0 0.0
2018-Jul-18 07:26N 39°33' E 002°38'0 0.0
2018-Jul-18 06:59N 39°33' E 002°38'0 0.0
2018-Jul-18 06:29N 39°33' E 002°38'0 0.0
2018-Jul-18 05:59N 39°33' E 002°38'0 0.0
2018-Jul-18 05:30N 39°33' E 002°38'1 1.2
2018-Jul-18 05:00N 39°33' E 002°38'4 7.7
2018-Jul-18 04:30N 39°30' E 002°37'918.5
2018-Jul-18 04:00N 39°22' E 002°31'918.7
2018-Jul-18 03:30N 39°15' E 002°23'2038.9
2018-Jul-18 03:00N 39°00' E 002°06'101157.7 100 / 17 25.7 27.1
2018-Jul-18 02:59N 39°08' E 002°14'918.6
2018-Jul-18 02:30N 39°01' E 002°06'918.3
2018-Jul-18 02:00N 38°55' E 001°59'918.7
2018-Jul-18 01:30N 38°48' E 001°50'918.6
2018-Jul-18 01:00N 38°41' E 001°42'1218.3
2018-Jul-18 00:21N 38°34' E 001°30'1617.2
2018-Jul-17 23:26N 38°25' E 001°13'2013.9
2018-Jul-17 22:00N 38°12' E 000°54'5217.4 100 / 211015.0 0.5 24.822.125.8
2018-Jul-17 19:00N 37°42' E 000°00'1225.7 050 / 121014.0 26.026.026.0
2018-Jul-17 18:30N 37°41' W 000°16'816.6
2018-Jul-17 18:00N 37°37' W 000°25'816.4
2018-Jul-17 17:30N 37°32' W 000°33'816.4
2018-Jul-17 17:00N 37°32' W 000°43'816.3
2018-Jul-17 16:30N 37°32' W 000°54'2 4.1
2018-Jul-17 16:00N 37°30' W 000°54'6 1.0 060 / 25 29.8 25.4
2018-Jul-17 10:00N 37°36' W 000°54'7 1.7 140 / 31017.0 0.5 29.518.523.4
2018-Jul-17 05:48N 37°32' W 001°01'616.0
2018-Jul-17 05:26N 37°27' W 001°06'715.9
2018-Jul-17 05:00N 37°22' W 001°11'815.8
2018-Jul-17 04:30N 37°15' W 001°17'815.9
2018-Jul-17 04:01N 37°09' W 001°23'816.0
2018-Jul-17 03:30N 37°02' W 001°29'816.1
2018-Jul-17 03:00N 36°56' W 001°34'9671.5
2018-Jul-17 03:00N 37°00' W 001°24'1832.7 280 / 11 21.6 22.9
2018-Jul-17 02:27N 36°49' W 001°41'1615.9
2018-Jul-17 01:26N 36°36' W 001°54'715.8
2018-Jul-17 01:00N 36°31' W 001°60'815.9
2018-Jul-17 00:30N 36°25' W 002°07'2013.5
2018-Jul-16 23:00N 36°18' W 002°30'7017.5 210 / 51016.0 0.1 20.718.421.6
2018-Jul-16 19:00N 36°36' W 003°54'25 6.2 140 / 51015.0 22.022.020.0
2018-Jul-16 15:00N 36°42' W 004°24'0 0.0 240 / 3 27.0 19.0
2018-Jul-16 11:00N 36°42' W 004°24'0 0.0 270 / 161016.0 0.5 28.0 8.318.3
2018-Jul-16 08:00N 36°42' W 004°24'20 3.4 270 / 151018.0 24.024.019.0
2018-Jul-16 02:00N 36°24' W 004°12'23 5.7 270 / 22 20.4 19.3
2018-Jul-15 22:00N 36°12' W 004°36'20 6.8 240 / 351018.0 0.3 19.013.118.2
2018-Jul-15 19:00N 36°06' W 005°00'6194.9 260 / 251018.0 20.020.017.0
2018-Jul-15 18:58N 36°09' W 005°06'2 5.2
2018-Jul-15 18:30N 36°09' W 005°09'3 5.3
2018-Jul-15 17:56N 36°08' W 005°12'2 5.9
2018-Jul-15 17:31N 36°07' W 005°15'3 5.5
2018-Jul-15 17:00N 36°06' W 005°19'3 6.5
2018-Jul-15 16:30N 36°07' W 005°23'2 4.4
2018-Jul-15 16:00N 36°09' W 005°22'0 0.0
2018-Jul-15 15:29N 36°09' W 005°22'0 0.0
2018-Jul-15 14:53N 36°09' W 005°22'0 0.0
2018-Jul-15 14:30N 36°09' W 005°22'5171027.6
2018-Jul-15 14:00N 36°06' E 005°18'51751694.6 270 / 24 24.7 17.9
2018-Jul-15 13:59N 36°09' W 005°22'0 0.0
2018-Jul-15 13:29N 36°09' W 005°22'0 0.0
2018-Jul-15 13:00N 36°09' W 005°22'0 0.0
2018-Jul-15 12:28N 36°09' W 005°22'0 0.0
2018-Jul-15 11:55N 36°09' W 005°22'0 0.0
2018-Jul-15 11:30N 36°09' W 005°22'0 0.0
2018-Jul-15 11:00N 36°09' W 005°22'0 0.0
2018-Jul-15 10:28N 36°09' W 005°22'4 8.9
2018-Jul-15 10:00N 36°06' W 005°18'4151.9 270 / 131020.0 0.3 21.616.218.0
2018-Jul-15 09:58N 36°09' W 005°22'0 0.0
2018-Jul-15 09:28N 36°09' W 005°22'0 0.0
2018-Jul-15 08:58N 36°09' W 005°22'0 0.0
2018-Jul-15 08:28N 36°09' W 005°22'0 0.0
2018-Jul-15 07:55N 36°09' W 005°22'0 0.0
2018-Jul-15 07:28N 36°09' W 005°22'4 8.9
2018-Jul-15 07:00N 36°06' W 005°18'4150.4 270 / 151020.0 20.020.017.0
2018-Jul-15 06:58N 36°09' W 005°22'0 0.0
2018-Jul-15 06:25N 36°09' W 005°22'0 0.0
2018-Jul-15 05:58N 36°09' W 005°22'0 0.0
2018-Jul-15 05:30N 36°09' W 005°22'0 0.0
2018-Jul-15 05:00N 36°09' W 005°22'1 2.2
2018-Jul-15 04:30N 36°08' W 005°23'5 9.4
2018-Jul-15 04:01N 36°06' W 005°18'815.3
2018-Jul-15 03:30N 36°07' W 005°09'2214.2
2018-Jul-15 02:00N 36°06' W 004°42'39 9.8 270 / 29 19.5 17.5
2018-Jul-14 22:00N 36°12' W 003°54'3913.1 260 / 171016.0 0.3 20.017.118.5
2018-Jul-14 19:00N 36°18' W 003°06'3417.2 270 / 161017.0 23.023.023.0
2018-Jul-14 17:00N 36°24' W 002°24'9413.4 240 / 16 23.9 22.9
2018-Jul-14 10:00N 37°18' W 000°48'2323.0 170 / 81018.0 0.1 24.022.325.4
2018-Jul-14 09:00N 37°36' W 000°30'9115.2 190 / 111017.0 25.025.026.0
2018-Jul-14 03:00N 38°54' E 000°30'6312.6 300 / 17 25.7 26.9
2018-Jul-13 22:00N 39°48' E 001°12'3120.6 060 / 201016.0 0.3 26.122.927.3
2018-Jul-13 20:30N 40°17' E 001°27'715.0
2018-Jul-13 20:00N 40°23' E 001°31'815.1
2018-Jul-13 19:30N 40°30' E 001°35'815.0
2018-Jul-13 19:00N 40°37' E 001°40'1415.0
2018-Jul-13 18:05N 40°48' E 001°49'885.2
2018-Jul-13 18:00N 40°42' E 001°42'11199.6 140 / 181016.0 27.027.026.0
2018-Jul-13 17:56N 40°50' E 001°51'714.9
2018-Jul-13 17:29N 40°56' E 001°55'715.3
2018-Jul-13 17:00N 41°03' E 001°59'815.0
2018-Jul-13 16:30N 41°10' E 002°04'714.9
2018-Jul-13 16:00N 41°15' E 002°10'4270.2
2018-Jul-13 16:00N 41°12' E 002°06'919.2 070 / 13 26.4 25.1
2018-Jul-13 15:31N 41°21' E 002°10'1 1.6
2018-Jul-13 14:58N 41°22' E 002°11'0 0.0
2018-Jul-13 13:58N 41°22' E 002°11'0 0.0
2018-Jul-13 13:28N 41°22' E 002°11'0 0.0
2018-Jul-13 12:58N 41°22' E 002°11'0 0.0
2018-Jul-13 12:28N 41°22' E 002°11'0 0.0
2018-Jul-13 11:58N 41°22' E 002°11'0 0.0
2018-Jul-13 11:28N 41°22' E 002°11'510.5
2018-Jul-13 11:00N 41°18' E 002°06'566.3 070 / 71017.0 0.5 28.722.424.5
2018-Jul-13 10:55N 41°22' E 002°11'0 0.0
2018-Jul-13 10:28N 41°22' E 002°11'0 0.0
2018-Jul-13 09:58N 41°22' E 002°11'0 0.0
2018-Jul-13 09:28N 41°22' E 002°11'0 0.0
2018-Jul-13 08:55N 41°22' E 002°11'0 0.0
2018-Jul-13 08:28N 41°22' E 002°11'0 0.0
2018-Jul-13 07:58N 41°22' E 002°11'0 0.0
2018-Jul-13 07:28N 41°22' E 002°11'510.5
2018-Jul-13 07:00N 41°18' E 002°06'5195.0 010 / 71018.0 25.8 26.0
2018-Jul-13 06:58N 41°22' E 002°11'0 0.0
2018-Jul-13 06:28N 41°22' E 002°11'0 0.0
2018-Jul-13 05:58N 41°22' E 002°11'0 0.0
2018-Jul-13 05:25N 41°22' E 002°11'0 0.0
2018-Jul-13 04:58N 41°22' E 002°11'0 0.0
2018-Jul-13 04:28N 41°22' E 002°11'0 0.0
2018-Jul-13 03:58N 41°22' E 002°11'0 0.0
2018-Jul-13 03:28N 41°22' E 002°11'0 0.0
2018-Jul-13 02:58N 41°22' E 002°11'0 0.0
2018-Jul-13 02:30N 41°22' E 002°11'0 0.0
2018-Jul-13 02:00N 41°22' E 002°11'0 0.0
2018-Jul-13 01:29N 41°22' E 002°11'0 0.0
2018-Jul-13 00:59N 41°22' E 002°11'0 0.0
2018-Jul-13 00:28N 41°22' E 002°11'510.6
2018-Jul-13 00:00N 41°18' E 002°06'5179.6 010 / 71017.0 0.5 24.515.124.9
2018-Jul-12 23:58N 41°22' E 002°11'0 0.0
2018-Jul-12 23:28N 41°22' E 002°11'0 0.0
2018-Jul-12 22:58N 41°22' E 002°11'0 0.0
2018-Jul-12 22:28N 41°22' E 002°11'0 0.0
2018-Jul-12 21:58N 41°22' E 002°11'0 0.0
2018-Jul-12 21:28N 41°22' E 002°11'0 0.0
2018-Jul-12 20:58N 41°22' E 002°11'0 0.0
2018-Jul-12 20:28N 41°22' E 002°11'0 0.0
2018-Jul-12 19:58N 41°22' E 002°11'0 0.0
2018-Jul-12 19:28N 41°22' E 002°11'510.6
2018-Jul-12 19:00N 41°18' E 002°06'5176.0 050 / 131015.0 25.025.025.0
2018-Jul-12 18:58N 41°22' E 002°11'0 0.0
2018-Jul-12 18:28N 41°22' E 002°11'510.6
2018-Jul-12 18:00N 41°18' E 002°06'5176.0 060 / 10 26.1 25.1
2018-Jul-12 17:58N 41°22' E 002°11'0 0.0
2018-Jul-12 17:28N 41°22' E 002°11'0 0.0
2018-Jul-12 16:58N 41°22' E 002°11'0 0.0
2018-Jul-12 16:28N 41°22' E 002°11'0 0.0
2018-Jul-12 15:58N 41°22' E 002°11'0 0.0
2018-Jul-12 15:28N 41°22' E 002°11'0 0.0
2018-Jul-12 14:58N 41°22' E 002°11'0 0.0
2018-Jul-12 14:28N 41°22' E 002°11'0 0.0
2018-Jul-12 13:58N 41°22' E 002°11'0 0.0
2018-Jul-12 13:28N 41°22' E 002°11'0 0.0
2018-Jul-12 12:58N 41°22' E 002°11'0 0.0
2018-Jul-12 12:28N 41°22' E 002°11'510.6
2018-Jul-12 12:00N 41°18' E 002°06'5177.8 080 / 91015.0 0.3 26.321.823.4
2018-Jul-12 11:58N 41°22' E 002°11'0 0.0
2018-Jul-12 11:28N 41°22' E 002°11'0 0.0
2018-Jul-12 10:58N 41°22' E 002°11'0 0.0
2018-Jul-12 10:28N 41°22' E 002°11'0 0.0
2018-Jul-12 09:58N 41°22' E 002°11'0 0.0
2018-Jul-12 09:28N 41°22' E 002°11'0 0.0
2018-Jul-12 09:01N 41°22' E 002°11'1 2.0
2018-Jul-12 08:30N 41°21' E 002°10'3 5.6
2018-Jul-12 08:00N 41°18' E 002°11'4 9.0
2018-Jul-12 07:30N 41°17' E 002°16'612.9
2018-Jul-12 07:00N 41°20' E 002°24'816.1
2018-Jul-12 06:30N 41°24' E 002°33'6113.5
2018-Jul-12 02:00N 41°48' E 003°48'8721.6 240 / 14 24.2 23.6
2018-Jul-11 22:00N 42°30' E 005°30'   270 / 81013.0 0.3 23.021.023.4
Track history (hours):
 
Tides and Currents Weather Stations Pressure Air Temp Water Temp Dewpoint Dewpoint Depression Visibility Wind Speed Wind Dir Waves Ship Positions

Celebrity Reflection

Last reported at 2018-Jul-21 22:00 UTC. Time now 2018-Jul-22 03:21 UTC.
Position N 36°48' E 015°18'.

Length 319 m; draft 8.6 m.

Type: Passenger vessel. MMSI: 229074000.

Wind from 220 at 8 knots

Barometer 1014.0 mb
Air temperature 26.3 ° C
Visibility: greater than 0.3 NM
Dewpoint 22.7 ° C
Water temperature 27.0 ° C

Date/timePositionNaut miles runAvg speedWind from/ knotsBaromVisibWave heightAir tempDewpointWater temp
2018-Jul-21 22:00N 36°48' E 015°18'5518.3 220 / 81014.0 0.3 26.322.727.0
2018-Jul-21 19:00N 37°42' E 015°30'30 3.8 090 / 81013.0 27.027.026.0
2018-Jul-21 11:00N 38°12' E 015°30'6 3.0 040 / 51014.0 0.5 25.320.525.9
2018-Jul-21 09:00N 38°06' E 015°30'5711.5 030 / 91014.0 26.0
2018-Jul-21 04:02N 38°60' E 015°07'119.4
2018-Jul-21 03:59N 39°01' E 015°06'1019.3
2018-Jul-21 03:29N 39°08' E 014°57'919.2
2018-Jul-21 03:00N 39°14' E 014°49'1817.5
2018-Jul-21 02:00N 39°24' E 014°30'1722.9 190 / 6 25.6 27.5
2018-Jul-21 01:15N 39°39' E 014°19'919.1
2018-Jul-21 00:46N 39°45' E 014°11'519.2
2018-Jul-21 00:30N 39°49' E 014°06'1019.4
2018-Jul-21 00:00N 39°56' E 013°57'1019.4
2018-Jul-20 23:30N 40°03' E 013°49'1019.3
2018-Jul-20 23:00N 40°10' E 013°40'5336.5
2018-Jul-20 23:00N 40°06' E 013°36'1223.9 300 / 31014.0 0.1 25.122.127.5
2018-Jul-20 22:30N 40°17' E 013°31'1019.2
2018-Jul-20 22:00N 40°24' E 013°22'1019.3
2018-Jul-20 21:30N 40°31' E 013°14'1019.2
2018-Jul-20 21:00N 40°38' E 013°05'1019.2
2018-Jul-20 20:30N 40°45' E 012°56'1019.3
2018-Jul-20 20:00N 40°52' E 012°47'919.3
2018-Jul-20 19:30N 40°60' E 012°40'1019.3
2018-Jul-20 19:00N 41°07' E 012°32'7454.2
2018-Jul-20 19:00N 41°06' E 012°24'1019.0 260 / 81013.0 26.026.025.0
2018-Jul-20 18:29N 41°16' E 012°25'919.3
2018-Jul-20 18:00N 41°23' E 012°17'1019.2
2018-Jul-20 17:28N 41°32' E 012°10'919.3
2018-Jul-20 17:00N 41°39' E 012°03'4227.7
2018-Jul-20 17:00N 41°36' E 012°00'1123.4 230 / 12 27.9 27.3
2018-Jul-20 16:30N 41°47' E 011°55'22 3.3
2018-Jul-20 10:00N 42°06' E 011°42'0 0.0 270 / 31014.0 0.3 28.222.622.3
2018-Jul-20 03:00N 42°06' E 011°42'1 1.2 020 / 4 22.2 22.3
2018-Jul-20 02:07N 42°05' E 011°43'212.8
2018-Jul-20 01:57N 42°04' E 011°41'613.3
2018-Jul-20 01:30N 42°01' E 011°33'713.5
2018-Jul-20 00:59N 41°59' E 011°24'613.5
2018-Jul-20 00:30N 41°57' E 011°16'713.4
2018-Jul-20 00:00N 41°54' E 011°08'713.5
2018-Jul-19 23:30N 41°51' E 010°60'713.8
2018-Jul-19 23:00N 41°49' E 010°51'713.9
2018-Jul-19 22:30N 41°46' E 010°43'713.7
2018-Jul-19 22:00N 41°43' E 010°34'2120.7
2018-Jul-19 22:00N 41°42' E 010°36'815.9 350 / 71014.0 0.5 24.222.726.3
2018-Jul-19 21:30N 41°41' E 010°26'713.7
2018-Jul-19 21:00N 41°38' E 010°17'713.7
2018-Jul-19 20:31N 41°35' E 010°09'713.6
2018-Jul-19 20:00N 41°32' E 010°01'713.7
2018-Jul-19 19:30N 41°29' E 009°53'1834.9
2018-Jul-19 19:00N 41°24' E 009°30'837.3 270 / 111014.0 26.026.026.0
2018-Jul-19 18:47N 41°26' E 009°40'413.8
2018-Jul-19 18:30N 41°26' E 009°35'813.8
2018-Jul-19 17:57N 41°23' E 009°26'3015.6
2018-Jul-19 16:00N 41°12' E 008°48'3912.3 290 / 12 26.5 26.1
2018-Jul-19 12:51N 41°02' E 007°58'513.8
2018-Jul-19 12:30N 41°00' E 007°53'713.7
2018-Jul-19 11:59N 40°57' E 007°45'814.0
2018-Jul-19 11:23N 40°53' E 007°35'514.0
2018-Jul-19 11:00N 40°50' E 007°28'8532.6
2018-Jul-19 11:00N 40°48' E 007°18'2 2.8 320 / 191015.0 0.3 24.122.125.5
2018-Jul-19 10:22N 40°46' E 007°18'513.9
2018-Jul-19 09:58N 40°44' E 007°11'714.0
2018-Jul-19 09:30N 40°41' E 007°04'714.0
2018-Jul-19 09:00N 40°38' E 006°56'4225.1
2018-Jul-19 09:00N 40°36' E 007°00'6214.7 320 / 161015.0 26.026.025.0
2018-Jul-19 04:47N 40°10' E 005°46'414.0
2018-Jul-19 04:30N 40°09' E 005°42'713.6
2018-Jul-19 04:00N 40°05' E 005°34'3115.5
2018-Jul-19 02:00N 39°48' E 005°00'3213.0 030 / 8 25.0 26.6
2018-Jul-18 23:32N 39°37' E 004°21'214.0
2018-Jul-18 23:25N 39°36' E 004°19'614.0
2018-Jul-18 23:00N 39°33' E 004°13'713.9
2018-Jul-18 22:30N 39°30' E 004°05'714.0
2018-Jul-18 22:00N 39°27' E 003°56'4426.7
2018-Jul-18 22:00N 39°30' E 004°00'1122.2 020 / 51015.0 0.3 24.721.427.0
2018-Jul-18 21:30N 39°24' E 003°48'714.0
2018-Jul-18 21:01N 39°21' E 003°40'714.0
2018-Jul-18 20:30N 39°17' E 003°32'714.1
2018-Jul-18 20:00N 39°14' E 003°24'714.1
2018-Jul-18 19:30N 39°11' E 003°16'714.0
2018-Jul-18 19:00N 39°08' E 003°08'10717.6
2018-Jul-18 19:00N 39°00' E 003°00'5 9.4 090 / 111013.0 27.027.027.0
2018-Jul-18 18:30N 39°05' E 002°60'712.1
2018-Jul-18 17:55N 39°08' E 002°52'614.3
2018-Jul-18 17:30N 39°13' E 002°49'714.2
2018-Jul-18 17:00N 39°20' E 002°45'714.2
2018-Jul-18 16:30N 39°26' E 002°41'5 9.5
2018-Jul-18 16:00N 39°24' E 002°36'94130.8 160 / 16 28.9 27.9
2018-Jul-18 15:59N 39°33' E 002°39'1 1.6
2018-Jul-18 15:29N 39°33' E 002°38'0 0.0
2018-Jul-18 14:56N 39°33' E 002°38'0 0.0
2018-Jul-18 14:29N 39°33' E 002°38'0 0.0
2018-Jul-18 13:29N 39°33' E 002°38'0 0.0
2018-Jul-18 12:59N 39°33' E 002°38'0 0.0
2018-Jul-18 12:29N 39°33' E 002°38'3 6.6
2018-Jul-18 12:00N 39°30' E 002°36'313.1 200 / 121015.0 0.3 27.921.727.0
2018-Jul-18 11:44N 39°33' E 002°38'0 0.0
2018-Jul-18 11:29N 39°33' E 002°38'0 0.0
2018-Jul-18 10:26N 39°33' E 002°38'0 0.0
2018-Jul-18 09:56N 39°33' E 002°38'0 0.0
2018-Jul-18 09:29N 39°33' E 002°38'3 6.6
2018-Jul-18 09:00N 39°30' E 002°36'31979.5 070 / 111015.0 28.0 21.0
2018-Jul-18 08:59N 39°33' E 002°38'0 0.0
2018-Jul-18 08:29N 39°33' E 002°38'0 0.0
2018-Jul-18 07:56N 39°33' E 002°38'0 0.0
2018-Jul-18 07:26N 39°33' E 002°38'0 0.0
2018-Jul-18 06:59N 39°33' E 002°38'0 0.0
2018-Jul-18 06:29N 39°33' E 002°38'0 0.0
2018-Jul-18 05:59N 39°33' E 002°38'0 0.0
2018-Jul-18 05:30N 39°33' E 002°38'1 1.2
2018-Jul-18 05:00N 39°33' E 002°38'4 7.7
2018-Jul-18 04:30N 39°30' E 002°37'918.5
2018-Jul-18 04:00N 39°22' E 002°31'918.7
2018-Jul-18 03:30N 39°15' E 002°23'2038.9
2018-Jul-18 03:00N 39°00' E 002°06'101157.7 100 / 17 25.7 27.1
2018-Jul-18 02:59N 39°08' E 002°14'918.6
2018-Jul-18 02:30N 39°01' E 002°06'918.3
2018-Jul-18 02:00N 38°55' E 001°59'918.7
2018-Jul-18 01:30N 38°48' E 001°50'918.6
2018-Jul-18 01:00N 38°41' E 001°42'1218.3
2018-Jul-18 00:21N 38°34' E 001°30'1617.2
2018-Jul-17 23:26N 38°25' E 001°13'2013.9
2018-Jul-17 22:00N 38°12' E 000°54'5217.4 100 / 211015.0 0.5 24.822.125.8
2018-Jul-17 19:00N 37°42' E 000°00'1225.7 050 / 121014.0 26.026.026.0
2018-Jul-17 18:30N 37°41' W 000°16'816.6
2018-Jul-17 18:00N 37°37' W 000°25'816.4
2018-Jul-17 17:30N 37°32' W 000°33'816.4
2018-Jul-17 17:00N 37°32' W 000°43'816.3
2018-Jul-17 16:30N 37°32' W 000°54'2 4.1
2018-Jul-17 16:00N 37°30' W 000°54'6 1.0 060 / 25 29.8 25.4
2018-Jul-17 10:00N 37°36' W 000°54'7 1.7 140 / 31017.0 0.5 29.518.523.4
2018-Jul-17 05:48N 37°32' W 001°01'616.0
2018-Jul-17 05:26N 37°27' W 001°06'715.9
2018-Jul-17 05:00N 37°22' W 001°11'815.8
2018-Jul-17 04:30N 37°15' W 001°17'815.9
2018-Jul-17 04:01N 37°09' W 001°23'816.0
2018-Jul-17 03:30N 37°02' W 001°29'816.1
2018-Jul-17 03:00N 36°56' W 001°34'9671.5
2018-Jul-17 03:00N 37°00' W 001°24'1832.7 280 / 11 21.6 22.9
2018-Jul-17 02:27N 36°49' W 001°41'1615.9
2018-Jul-17 01:26N 36°36' W 001°54'715.8
2018-Jul-17 01:00N 36°31' W 001°60'815.9
2018-Jul-17 00:30N 36°25' W 002°07'2013.5
2018-Jul-16 23:00N 36°18' W 002°30'7017.5 210 / 51016.0 0.1 20.718.421.6
2018-Jul-16 19:00N 36°36' W 003°54'25 6.2 140 / 51015.0 22.022.020.0
2018-Jul-16 15:00N 36°42' W 004°24'0 0.0 240 / 3 27.0 19.0
2018-Jul-16 11:00N 36°42' W 004°24'0 0.0 270 / 161016.0 0.5 28.0 8.318.3
2018-Jul-16 08:00N 36°42' W 004°24'20 3.4 270 / 151018.0 24.024.019.0
2018-Jul-16 02:00N 36°24' W 004°12'23 5.7 270 / 22 20.4 19.3
2018-Jul-15 22:00N 36°12' W 004°36'20 6.8 240 / 351018.0 0.3 19.013.118.2
2018-Jul-15 19:00N 36°06' W 005°00'6194.9 260 / 251018.0 20.020.017.0
2018-Jul-15 18:58N 36°09' W 005°06'2 5.2
2018-Jul-15 18:30N 36°09' W 005°09'3 5.3
2018-Jul-15 17:56N 36°08' W 005°12'2 5.9
2018-Jul-15 17:31N 36°07' W 005°15'3 5.5
2018-Jul-15 17:00N 36°06' W 005°19'3 6.5
2018-Jul-15 16:30N 36°07' W 005°23'2 4.4
2018-Jul-15 16:00N 36°09' W 005°22'0 0.0
2018-Jul-15 15:29N 36°09' W 005°22'0 0.0
2018-Jul-15 14:53N 36°09' W 005°22'0 0.0
2018-Jul-15 14:30N 36°09' W 005°22'5171027.6
2018-Jul-15 14:00N 36°06' E 005°18'51751694.6 270 / 24 24.7 17.9
2018-Jul-15 13:59N 36°09' W 005°22'0 0.0
2018-Jul-15 13:29N 36°09' W 005°22'0 0.0
2018-Jul-15 13:00N 36°09' W 005°22'0 0.0
2018-Jul-15 12:28N 36°09' W 005°22'0 0.0
2018-Jul-15 11:55N 36°09' W 005°22'0 0.0
2018-Jul-15 11:30N 36°09' W 005°22'0 0.0
2018-Jul-15 11:00N 36°09' W 005°22'0 0.0
2018-Jul-15 10:28N 36°09' W 005°22'4 8.9
2018-Jul-15 10:00N 36°06' W 005°18'4151.9 270 / 131020.0 0.3 21.616.218.0
2018-Jul-15 09:58N 36°09' W 005°22'0 0.0
2018-Jul-15 09:28N 36°09' W 005°22'0 0.0
2018-Jul-15 08:58N 36°09' W 005°22'0 0.0
2018-Jul-15 08:28N 36°09' W 005°22'0 0.0
2018-Jul-15 07:55N 36°09' W 005°22'0 0.0
2018-Jul-15 07:28N 36°09' W 005°22'4 8.9
2018-Jul-15 07:00N 36°06' W 005°18'4150.4 270 / 151020.0 20.020.017.0
2018-Jul-15 06:58N 36°09' W 005°22'0 0.0
2018-Jul-15 06:25N 36°09' W 005°22'0 0.0
2018-Jul-15 05:58N 36°09' W 005°22'0 0.0
2018-Jul-15 05:30N 36°09' W 005°22'0 0.0
2018-Jul-15 05:00N 36°09' W 005°22'1 2.2
2018-Jul-15 04:30N 36°08' W 005°23'5 9.4
2018-Jul-15 04:01N 36°06' W 005°18'815.3
2018-Jul-15 03:30N 36°07' W 005°09'2214.2
2018-Jul-15 02:00N 36°06' W 004°42'39 9.8 270 / 29 19.5 17.5
2018-Jul-14 22:00N 36°12' W 003°54'3913.1 260 / 171016.0 0.3 20.017.118.5
2018-Jul-14 19:00N 36°18' W 003°06'3417.2 270 / 161017.0 23.023.023.0
2018-Jul-14 17:00N 36°24' W 002°24'9413.4 240 / 16 23.9 22.9
2018-Jul-14 10:00N 37°18' W 000°48'2323.0 170 / 81018.0 0.1 24.022.325.4
2018-Jul-14 09:00N 37°36' W 000°30'9115.2 190 / 111017.0 25.025.026.0
2018-Jul-14 03:00N 38°54' E 000°30'6312.6 300 / 17 25.7 26.9
2018-Jul-13 22:00N 39°48' E 001°12'3120.6 060 / 201016.0 0.3 26.122.927.3
2018-Jul-13 20:30N 40°17' E 001°27'715.0
2018-Jul-13 20:00N 40°23' E 001°31'815.1
2018-Jul-13 19:30N 40°30' E 001°35'815.0
2018-Jul-13 19:00N 40°37' E 001°40'1415.0
2018-Jul-13 18:05N 40°48' E 001°49'885.2
2018-Jul-13 18:00N 40°42' E 001°42'11199.6 140 / 181016.0 27.027.026.0
2018-Jul-13 17:56N 40°50' E 001°51'714.9
2018-Jul-13 17:29N 40°56' E 001°55'715.3
2018-Jul-13 17:00N 41°03' E 001°59'815.0
2018-Jul-13 16:30N 41°10' E 002°04'714.9
2018-Jul-13 16:00N 41°15' E 002°10'4270.2
2018-Jul-13 16:00N 41°12' E 002°06'919.2 070 / 13 26.4 25.1
2018-Jul-13 15:31N 41°21' E 002°10'1 1.6
2018-Jul-13 14:58N 41°22' E 002°11'0 0.0
2018-Jul-13 13:58N 41°22' E 002°11'0 0.0
2018-Jul-13 13:28N 41°22' E 002°11'0 0.0
2018-Jul-13 12:58N 41°22' E 002°11'0 0.0
2018-Jul-13 12:28N 41°22' E 002°11'0 0.0
2018-Jul-13 11:58N 41°22' E 002°11'0 0.0
2018-Jul-13 11:28N 41°22' E 002°11'510.5
2018-Jul-13 11:00N 41°18' E 002°06'566.3 070 / 71017.0 0.5 28.722.424.5
2018-Jul-13 10:55N 41°22' E 002°11'0 0.0
2018-Jul-13 10:28N 41°22' E 002°11'0 0.0
2018-Jul-13 09:58N 41°22' E 002°11'0 0.0
2018-Jul-13 09:28N 41°22' E 002°11'0 0.0
2018-Jul-13 08:55N 41°22' E 002°11'0 0.0
2018-Jul-13 08:28N 41°22' E 002°11'0 0.0
2018-Jul-13 07:58N 41°22' E 002°11'0 0.0
2018-Jul-13 07:28N 41°22' E 002°11'510.5
2018-Jul-13 07:00N 41°18' E 002°06'5195.0 010 / 71018.0 25.8 26.0
2018-Jul-13 06:58N 41°22' E 002°11'0 0.0
2018-Jul-13 06:28N 41°22' E 002°11'0 0.0
2018-Jul-13 05:58N 41°22' E 002°11'0 0.0
2018-Jul-13 05:25N 41°22' E 002°11'0 0.0
2018-Jul-13 04:58N 41°22' E 002°11'0 0.0
2018-Jul-13 04:28N 41°22' E 002°11'0 0.0
2018-Jul-13 03:58N 41°22' E 002°11'0 0.0
2018-Jul-13 03:28N 41°22' E 002°11'0 0.0
2018-Jul-13 02:58N 41°22' E 002°11'0 0.0
2018-Jul-13 02:30N 41°22' E 002°11'0 0.0
2018-Jul-13 02:00N 41°22' E 002°11'0 0.0
2018-Jul-13 01:29N 41°22' E 002°11'0 0.0
2018-Jul-13 00:59N 41°22' E 002°11'0 0.0
2018-Jul-13 00:28N 41°22' E 002°11'510.6
2018-Jul-13 00:00N 41°18' E 002°06'5179.6 010 / 71017.0 0.5 24.515.124.9
2018-Jul-12 23:58N 41°22' E 002°11'0 0.0
2018-Jul-12 23:28N 41°22' E 002°11'0 0.0
2018-Jul-12 22:58N 41°22' E 002°11'0 0.0
2018-Jul-12 22:28N 41°22' E 002°11'0 0.0
2018-Jul-12 21:58N 41°22' E 002°11'0 0.0
2018-Jul-12 21:28N 41°22' E 002°11'0 0.0
2018-Jul-12 20:58N 41°22' E 002°11'0 0.0
2018-Jul-12 20:28N 41°22' E 002°11'0 0.0
2018-Jul-12 19:58N 41°22' E 002°11'0 0.0
2018-Jul-12 19:28N 41°22' E 002°11'510.6
2018-Jul-12 19:00N 41°18' E 002°06'5176.0 050 / 131015.0 25.025.025.0
2018-Jul-12 18:58N 41°22' E 002°11'0 0.0
2018-Jul-12 18:28N 41°22' E 002°11'510.6
2018-Jul-12 18:00N 41°18' E 002°06'5176.0 060 / 10 26.1 25.1
2018-Jul-12 17:58N 41°22' E 002°11'0 0.0
2018-Jul-12 17:28N 41°22' E 002°11'0 0.0
2018-Jul-12 16:58N 41°22' E 002°11'0 0.0
2018-Jul-12 16:28N 41°22' E 002°11'0 0.0
2018-Jul-12 15:58N 41°22' E 002°11'0 0.0
2018-Jul-12 15:28N 41°22' E 002°11'0 0.0
2018-Jul-12 14:58N 41°22' E 002°11'0 0.0
2018-Jul-12 14:28N 41°22' E 002°11'0 0.0
2018-Jul-12 13:58N 41°22' E 002°11'0 0.0
2018-Jul-12 13:28N 41°22' E 002°11'0 0.0
2018-Jul-12 12:58N 41°22' E 002°11'0 0.0
2018-Jul-12 12:28N 41°22' E 002°11'510.6
2018-Jul-12 12:00N 41°18' E 002°06'5177.8 080 / 91015.0 0.3 26.321.823.4
2018-Jul-12 11:58N 41°22' E 002°11'0 0.0
2018-Jul-12 11:28N 41°22' E 002°11'0 0.0
2018-Jul-12 10:58N 41°22' E 002°11'0 0.0
2018-Jul-12 10:28N 41°22' E 002°11'0 0.0
2018-Jul-12 09:58N 41°22' E 002°11'0 0.0
2018-Jul-12 09:28N 41°22' E 002°11'0 0.0
2018-Jul-12 09:01N 41°22' E 002°11'1 2.0
2018-Jul-12 08:30N 41°21' E 002°10'3 5.6
2018-Jul-12 08:00N 41°18' E 002°11'4 9.0
2018-Jul-12 07:30N 41°17' E 002°16'612.9
2018-Jul-12 07:00N 41°20' E 002°24'816.1
2018-Jul-12 06:30N 41°24' E 002°33'6113.5
2018-Jul-12 02:00N 41°48' E 003°48'8721.6 240 / 14 24.2 23.6
2018-Jul-11 22:00N 42°30' E 005°30'   270 / 81013.0 0.3 23.021.023.4

Dump ship's entire track history